Time;durP1;ratioP1;P1;durP2;ratioP2;P2;SDS_P1;SDS_P2;PMS_P1;PMS_P2;Temp;Humidity;BMP_temperature;BMP_pressure;BME280_temperature;BME280_humidity;BME280_pressure;Samples;Min_cycle;Max_cycle;Signal;HPM_P1;HPM_P2
2021/07/29 00:01:53;;;;;;;9.13;3.57;;;15.60;99.90;;;16.55;100.00;97872.78;5027006;28;20463;-84
2021/07/29 00:04:22;;;;;;;10.80;3.20;;;15.50;99.90;;;16.57;100.00;97881.28;5023921;28;20501;-84
2021/07/29 00:06:52;;;;;;;6.73;2.60;;;15.50;99.90;;;16.57;100.00;97888.41;5024574;28;20466;-84
2021/07/29 00:09:21;;;;;;;7.90;3.17;;;15.60;99.90;;;16.55;100.00;97877.25;5026750;28;20502;-84
2021/07/29 00:11:51;;;;;;;6.40;3.20;;;15.60;99.90;;;16.54;100.00;97871.16;5029670;28;20462;-84
2021/07/29 00:14:21;;;;;;;4.90;2.53;;;15.60;99.90;;;16.59;100.00;97863.38;5028764;28;20497;-84
2021/07/29 00:16:57;;;;;;;9.73;4.40;;;15.70;99.90;;;16.55;100.00;97866.69;5030145;28;20539;-84
2021/07/29 00:19:26;;;;;;;5.80;3.40;;;15.60;99.90;;;16.43;100.00;97866.66;5029042;28;20462;-84
2021/07/29 00:21:56;;;;;;;10.17;3.37;;;15.40;99.90;;;16.38;100.00;97858.59;5028852;28;20800;-84
2021/07/29 00:24:26;;;;;;;3.53;2.90;;;15.30;99.90;;;16.52;100.00;97865.28;5028256;28;20474;-84
2021/07/29 00:26:57;;;;;;;3.20;2.70;;;15.50;99.90;;;16.56;100.00;97858.53;5029280;28;20462;-84
2021/07/29 00:29:26;;;;;;;10.33;3.93;;;15.50;99.90;;;16.55;100.00;97856.97;5030348;28;20504;-84
2021/07/29 00:31:56;;;;;;;5.50;3.10;;;15.50;99.90;;;16.55;100.00;97851.69;5027864;28;20825;-84
2021/07/29 00:34:28;;;;;;;5.33;3.27;;;15.50;99.90;;;16.61;100.00;97852.59;5026933;28;20541;-84
2021/07/29 00:36:59;;;;;;;9.03;2.93;;;15.60;99.90;;;16.66;100.00;97854.53;5030879;28;20488;-84
2021/07/29 00:39:28;;;;;;;6.50;3.60;;;15.70;99.90;;;16.71;100.00;97858.09;5028512;28;20469;-84
2021/07/29 00:41:57;;;;;;;6.73;3.73;;;15.80;99.90;;;16.69;100.00;97854.06;5031915;28;20889;-84
2021/07/29 00:44:28;;;;;;;5.40;2.57;;;15.80;99.90;;;16.50;100.00;97858.63;5035736;28;20511;-84
2021/07/29 00:46:58;;;;;;;6.57;3.13;;;15.60;99.90;;;16.47;100.00;97854.63;5028254;28;20466;-84
2021/07/29 00:49:32;;;;;;;7.60;3.37;;;15.60;99.90;;;16.50;100.00;97854.16;5024270;28;20504;-84
2021/07/29 00:52:02;;;;;;;4.83;2.80;;;15.50;99.90;;;16.53;100.00;97853.69;5025475;28;20458;-84
2021/07/29 00:54:32;;;;;;;3.93;3.23;;;15.50;99.90;;;16.61;100.00;97844.66;5026068;28;20453;-84
2021/07/29 00:57:03;;;;;;;8.93;3.30;;;15.70;99.90;;;16.67;100.00;97840.28;5027587;28;20470;-84
2021/07/29 00:59:34;;;;;;;4.13;3.20;;;15.70;99.90;;;16.68;100.00;97833.97;5027196;28;20457;-84
2021/07/29 01:02:05;;;;;;;13.33;2.90;;;15.70;99.90;;;16.64;100.00;97838.91;5028481;28;20474;-84
2021/07/29 01:04:36;;;;;;;5.03;2.97;;;15.70;99.90;;;16.59;100.00;97836.97;5023454;28;20835;-84
2021/07/29 01:07:06;;;;;;;12.80;3.13;;;15.60;99.90;;;16.58;100.00;97840.66;5022409;28;20465;-84
2021/07/29 01:09:36;;;;;;;4.90;3.30;;;15.60;99.90;;;16.62;100.00;97841.00;5028339;28;20872;-84
2021/07/29 01:12:06;;;;;;;11.40;3.40;;;15.70;99.90;;;16.55;100.00;97840.28;5025472;28;20509;-84
2021/07/29 01:14:36;;;;;;;10.43;2.90;;;15.70;99.90;;;16.46;100.00;97831.88;5026505;28;20930;-84
2021/07/29 01:17:05;;;;;;;5.63;3.20;;;15.50;99.90;;;16.57;100.00;97840.88;5029664;28;20878;-85
2021/07/29 01:19:37;;;;;;;4.10;2.93;;;15.60;99.90;;;16.62;100.00;97845.47;5026151;28;20469;-85
2021/07/29 01:22:08;;;;;;;5.27;2.83;;;15.70;99.90;;;16.62;100.00;97840.19;5026828;28;20462;-85
2021/07/29 01:24:38;;;;;;;5.70;3.00;;;15.70;99.90;;;16.67;100.00;97849.00;5023164;28;20489;-84
2021/07/29 01:27:08;;;;;;;8.53;3.40;;;15.70;99.90;;;16.74;100.00;97848.91;5024763;28;20557;-84
2021/07/29 01:29:38;;;;;;;9.23;3.70;;;15.80;99.90;;;16.62;100.00;97843.63;5033565;28;20511;-84
2021/07/29 01:32:10;;;;;;;5.27;3.40;;;15.70;99.90;;;16.66;100.00;97838.69;5027212;28;20523;-84
2021/07/29 01:34:40;;;;;;;6.73;3.40;;;15.80;99.90;;;16.65;100.00;97837.91;5032298;28;20460;-84
2021/07/29 01:37:11;;;;;;;8.53;3.33;;;15.80;99.90;;;16.59;100.00;97836.97;5029233;28;20458;-84
2021/07/29 01:39:42;;;;;;;12.60;3.60;;;15.70;99.90;;;16.65;100.00;97835.25;5027002;28;20549;-84
2021/07/29 01:42:13;;;;;;;5.70;3.33;;;15.70;99.90;;;16.58;100.00;97830.09;5027582;28;20458;-84
2021/07/29 01:44:42;;;;;;;5.20;3.07;;;15.70;99.90;;;16.44;100.00;97839.25;5026552;28;20468;-84
2021/07/29 01:47:12;;;;;;;6.33;3.43;;;15.40;99.90;;;16.41;100.00;97831.78;5023864;28;20490;-84
2021/07/29 01:49:43;;;;;;;11.43;3.80;;;15.50;99.90;;;16.45;100.00;97832.91;5021104;28;20592;-84
2021/07/29 01:52:16;;;;;;;7.30;3.47;;;15.50;99.90;;;16.43;100.00;97831.53;5019855;28;20557;-84
2021/07/29 01:54:46;;;;;;;5.13;2.77;;;15.40;99.90;;;16.29;100.00;97836.25;5021085;28;20465;-84
2021/07/29 01:57:16;;;;;;;7.60;2.90;;;15.30;99.90;;;16.27;100.00;97833.03;5024738;28;20464;-84
2021/07/29 01:59:46;;;;;;;4.33;3.17;;;15.20;99.90;;;16.24;100.00;97833.50;5023017;28;20478;-84
2021/07/29 02:02:16;;;;;;;8.27;3.33;;;15.20;99.90;;;16.16;100.00;97831.19;5026362;28;20484;-84
2021/07/29 02:04:45;;;;;;;4.40;3.20;;;15.20;99.90;;;16.14;100.00;97833.22;5020456;28;20461;-84
2021/07/29 02:07:17;;;;;;;4.70;2.90;;;15.10;99.90;;;16.06;100.00;97833.59;5028251;28;20465;-84
2021/07/29 02:09:48;;;;;;;5.90;3.07;;;15.00;99.90;;;16.06;100.00;97836.22;5025029;28;21039;-84
2021/07/29 02:12:18;;;;;;;9.07;3.33;;;15.00;99.90;;;16.13;100.00;97831.63;5024946;28;20462;-84
2021/07/29 02:14:48;;;;;;;8.13;3.20;;;15.10;99.90;;;16.17;100.00;97826.72;5023926;28;20548;-84
2021/07/29 02:17:21;;;;;;;4.87;3.50;;;15.20;99.90;;;16.06;100.00;97830.94;5028064;28;20857;-84
2021/07/29 02:19:51;;;;;;;7.80;3.00;;;15.00;99.90;;;16.06;100.00;97830.94;5022843;28;20470;-84
2021/07/29 02:22:23;;;;;;;10.57;3.40;;;15.10;99.90;;;16.09;100.00;97838.41;5026866;28;20823;-84
2021/07/29 02:24:53;;;;;;;4.80;3.20;;;15.20;99.90;;;15.92;100.00;97834.81;5024325;28;21113;-84
2021/07/29 02:27:24;;;;;;;7.67;3.73;;;14.90;99.90;;;15.95;100.00;97832.53;5026427;28;20809;-84
2021/07/29 02:29:55;;;;;;;9.30;3.83;;;14.90;99.90;;;15.95;100.00;97837.81;5023135;28;20493;-84
2021/07/29 02:32:28;;;;;;;7.00;3.57;;;14.90;99.90;;;15.89;100.00;97833.44;5027061;28;21049;-84
2021/07/29 02:34:58;;;;;;;5.43;3.50;;;14.90;99.90;;;15.88;100.00;97834.47;5021803;28;20462;-84
2021/07/29 02:37:30;;;;;;;7.17;4.00;;;14.90;99.90;;;15.86;100.00;97833.09;5018890;28;20470;-84
2021/07/29 02:40:01;;;;;;;7.57;3.43;;;14.90;99.90;;;15.88;100.00;97841.56;5027334;28;20459;-84
2021/07/29 02:42:30;;;;;;;5.10;3.27;;;14.90;99.90;;;15.80;100.00;97837.41;5026303;28;20767;-84
2021/07/29 02:45:00;;;;;;;5.83;3.50;;;14.80;99.90;;;15.77;100.00;97837.84;5032198;28;20461;-84
2021/07/29 02:47:30;;;;;;;9.77;3.77;;;14.90;99.90;;;15.75;100.00;97836.47;5029965;28;21076;-84
2021/07/29 02:50:00;;;;;;;7.40;3.40;;;14.80;99.90;;;15.82;100.00;97850.38;5024641;28;20501;-84
2021/07/29 02:52:31;;;;;;;6.07;3.50;;;14.80;99.90;;;15.84;100.00;97848.31;5027102;28;20469;-84
2021/07/29 02:55:00;;;;;;;6.90;3.20;;;14.90;99.90;;;15.86;100.00;97848.91;5030768;28;20448;-85
2021/07/29 02:57:31;;;;;;;3.90;3.00;;;14.90;99.90;;;15.88;100.00;97845.00;5028791;28;20958;-84
2021/07/29 03:00:01;;;;;;;6.80;3.33;;;14.90;99.90;;;15.94;100.00;97841.47;5033045;28;20524;-85
2021/07/29 03:02:30;;;;;;;8.77;3.40;;;15.00;99.90;;;15.96;100.00;97849.97;5031196;28;20527;-85
2021/07/29 03:05:00;;;;;;;8.57;3.50;;;15.00;99.90;;;15.90;100.00;97847.41;5019267;28;20470;-84
2021/07/29 03:07:33;;;;;;;3.83;2.97;;;14.90;99.90;;;15.93;100.00;97846.97;5037917;28;20497;-85
2021/07/29 03:10:03;;;;;;;3.97;3.10;;;15.00;99.90;;;15.97;100.00;97848.09;5030208;28;21033;-84
2021/07/29 03:12:33;;;;;;;5.90;3.50;;;15.00;99.90;;;15.97;100.00;97853.38;5029032;28;20453;-84
2021/07/29 03:15:03;;;;;;;7.33;3.20;;;15.00;99.90;;;15.97;100.00;97853.38;5027659;28;20466;-85
2021/07/29 03:17:33;;;;;;;4.97;3.97;;;15.10;99.90;;;15.97;100.00;97856.81;5034684;28;20477;-85
2021/07/29 03:20:03;;;;;;;3.73;2.87;;;15.00;99.90;;;15.98;100.00;97849.72;5034703;28;20565;-84
2021/07/29 03:22:35;;;;;;;5.50;3.50;;;15.00;99.90;;;16.01;100.00;97858.00;5029129;28;20466;-84
2021/07/29 03:25:05;;;;;;;5.83;3.60;;;15.10;99.90;;;15.91;100.00;97856.94;5028784;28;20516;-84
2021/07/29 03:27:35;;;;;;;9.10;3.93;;;14.90;99.90;;;15.96;100.00;97852.59;5026792;28;20466;-84
2021/07/29 03:30:07;;;;;;;4.60;3.33;;;15.00;99.90;;;15.97;100.00;97845.47;5024783;28;20497;-84
2021/07/29 03:32:36;;;;;;;11.50;3.63;;;15.00;99.90;;;15.98;100.00;97853.16;5030117;28;20548;-85
2021/07/29 03:35:06;;;;;;;10.60;3.80;;;15.10;99.90;;;15.99;100.00;97852.16;5024230;28;20916;-84
2021/07/29 03:37:38;;;;;;;5.60;3.73;;;15.00;99.90;;;16.01;100.00;97857.19;5024290;28;20454;-84
2021/07/29 03:40:11;;;;;;;7.43;3.63;;;15.10;99.90;;;16.03;100.00;97855.13;5034509;28;20827;-87
2021/07/29 03:42:40;;;;;;;6.00;3.53;;;15.10;99.90;;;16.04;100.00;97849.63;5033898;28;20477;-84
2021/07/29 03:45:13;;;;;;;9.33;3.80;;;15.10;99.90;;;16.07;100.00;97848.34;5031953;28;20946;-84
2021/07/29 03:47:44;;;;;;;10.30;3.30;;;15.20;99.90;;;16.05;100.00;97859.16;5029638;28;21018;-89
2021/07/29 03:50:13;;;;;;;6.27;4.63;;;15.20;99.90;;;16.06;100.00;97847.56;5026602;28;20482;-84
2021/07/29 03:52:45;;;;;;;8.63;3.70;;;15.10;99.90;;;16.09;100.00;97848.94;5035778;28;20548;-85
2021/07/29 03:55:16;;;;;;;9.93;3.70;;;15.20;99.90;;;16.14;100.00;97864.09;5027090;28;20466;-84
2021/07/29 03:57:46;;;;;;;8.03;3.60;;;15.20;99.90;;;16.11;100.00;97870.63;5029994;28;20446;-84
2021/07/29 04:00:16;;;;;;;5.30;3.43;;;15.20;99.90;;;16.10;100.00;97874.31;5035714;28;20511;-84
2021/07/29 04:02:45;;;;;;;10.10;3.87;;;15.30;99.90;;;16.13;100.00;97873.84;5033733;28;20466;-84
2021/07/29 04:05:15;;;;;;;10.73;4.43;;;15.30;99.90;;;16.09;100.00;97872.69;5036952;28;20453;-84
2021/07/29 04:07:47;;;;;;;5.60;3.20;;;15.20;99.90;;;16.09;100.00;97870.06;5036581;28;20449;-84
2021/07/29 04:10:16;;;;;;;13.30;4.20;;;15.30;99.90;;;16.09;100.00;97868.22;5040812;28;20572;-84
2021/07/29 04:12:44;;;;;;;5.47;3.70;;;15.20;99.90;;;16.11;100.00;97868.78;5039149;28;20461;-84
2021/07/29 04:15:13;;;;;;;8.00;4.00;;;15.20;99.90;;;16.15;100.00;97870.97;5040833;28;20453;-84
2021/07/29 04:17:41;;;;;;;6.67;3.83;;;15.20;99.90;;;16.16;100.00;97883.13;5036442;28;20470;-84
2021/07/29 04:20:10;;;;;;;6.60;3.87;;;15.20;99.90;;;16.15;100.00;97889.44;5031514;28;20477;-84
2021/07/29 04:22:39;;;;;;;4.40;3.63;;;15.20;99.90;;;16.11;100.00;97871.44;5024674;28;20466;-84
2021/07/29 04:25:10;;;;;;;6.47;3.50;;;15.30;99.90;;;16.14;100.00;97878.06;5021125;28;20528;-82
2021/07/29 04:27:38;;;;;;;6.67;3.60;;;15.30;99.90;;;16.11;100.00;97874.06;5033143;28;20449;-82
2021/07/29 04:30:09;;;;;;;9.63;4.43;;;15.20;99.90;;;16.16;100.00;97873.41;5025388;28;20849;-83
2021/07/29 04:32:37;;;;;;;7.43;3.63;;;15.20;99.90;;;16.21;100.00;97880.66;5031233;28;20442;-83
2021/07/29 04:35:07;;;;;;;81.47;50.10;;;15.20;99.90;;;16.22;100.00;97877.75;5032230;28;20435;-84
2021/07/29 04:37:36;;;;;;;11.87;6.43;;;15.30;99.90;;;16.22;100.00;97875.13;5030148;28;20507;-83
2021/07/29 04:40:05;;;;;;;6.10;3.60;;;15.40;99.90;;;16.26;100.00;97878.91;5033146;28;21245;-83
2021/07/29 04:42:35;;;;;;;7.10;3.83;;;15.40;99.90;;;16.28;100.00;97882.13;5032836;28;20442;-82
2021/07/29 04:45:04;;;;;;;6.80;3.97;;;15.30;99.90;;;16.25;100.00;97892.31;5032552;28;20469;-82
2021/07/29 04:47:35;;;;;;;4.00;3.13;;;15.30;99.90;;;16.28;100.00;97889.25;5035920;28;20514;-82
2021/07/29 04:50:04;;;;;;;7.10;4.00;;;15.40;99.90;;;16.27;100.00;97891.09;5029410;28;20470;-82
2021/07/29 04:52:33;;;;;;;10.73;4.13;;;15.40;99.90;;;16.31;100.00;97889.63;5032122;28;20497;-82
2021/07/29 04:55:02;;;;;;;13.87;3.87;;;15.40;99.90;;;16.31;100.00;97894.88;5039052;28;20445;-82
2021/07/29 04:57:30;;;;;;;7.27;4.13;;;15.30;99.90;;;16.22;100.00;97896.22;5040192;28;20469;-82
2021/07/29 05:00:01;;;;;;;6.80;3.80;;;15.40;99.90;;;16.27;100.00;97887.66;5051143;28;20446;-82
2021/07/29 05:02:29;;;;;;;10.40;4.20;;;15.40;99.90;;;16.27;100.00;97890.28;5045309;28;20466;-82
2021/07/29 05:04:58;;;;;;;4.90;3.37;;;15.40;99.90;;;16.27;100.00;97885.81;5022609;28;20461;-82
2021/07/29 05:07:26;;;;;;;4.10;3.23;;;15.40;99.90;;;16.23;100.00;97878.56;5035458;28;20469;-82
2021/07/29 05:09:55;;;;;;;7.10;4.20;;;15.40;99.90;;;16.18;100.00;97876.59;5040037;28;20500;-82
2021/07/29 05:12:35;;;;;;;6.20;3.50;;;15.20;99.90;;;16.05;100.00;97880.25;5042499;28;20492;-82
2021/07/29 05:15:06;;;;;;;11.40;4.03;;;15.10;99.90;;;16.11;100.00;97873.25;5035584;28;20461;-82
2021/07/29 05:17:34;;;;;;;4.27;3.17;;;15.20;99.90;;;16.15;100.00;97873.63;5043048;28;20495;-86
2021/07/29 05:20:07;;;;;;;6.20;3.33;;;15.20;99.90;;;16.19;100.00;97872.94;5036109;28;20480;-82
2021/07/29 05:23:00;;;;;;;7.70;3.50;;;15.30;99.90;;;16.19;100.00;97883.50;5041112;28;20449;-82
2021/07/29 05:25:32;;;;;;;7.03;3.70;;;15.20;99.90;;;16.21;100.00;97881.41;5040425;28;20965;-83
2021/07/29 05:28:01;;;;;;;6.07;3.83;;;15.30;99.90;;;16.26;100.00;97884.19;5033790;28;20540;-82
2021/07/29 05:30:31;;;;;;;6.03;4.00;;;15.40;99.90;;;16.30;100.00;97884.56;5037202;28;20965;-82
2021/07/29 05:33:00;;;;;;;12.77;4.53;;;15.50;99.90;;;16.36;100.00;97888.91;5030746;28;20497;-82
2021/07/29 05:35:34;;;;;;;10.07;3.10;;;15.50;99.90;;;16.36;100.00;97895.00;5030788;28;20501;-82
2021/07/29 05:38:09;;;;;;;7.60;4.13;;;15.60;99.90;;;16.36;100.00;97888.91;5027530;28;20454;-82
2021/07/29 05:40:48;;;;;;;6.33;3.33;;;15.50;99.90;;;16.41;100.00;97884.56;5032732;28;20457;-82
2021/07/29 05:43:19;;;;;;;8.80;4.03;;;15.60;99.90;;;16.48;100.00;97890.56;5031253;28;20545;-82
2021/07/29 05:46:04;;;;;;;5.40;3.07;;;15.70;99.90;;;16.53;100.00;97889.84;5035237;28;20493;-82
2021/07/29 05:48:55;;;;;;;6.70;3.80;;;15.70;99.90;;;16.53;100.00;97895.94;5033324;28;20490;-82
2021/07/29 05:51:26;;;;;;;6.07;3.50;;;15.80;99.90;;;16.57;100.00;97902.41;5034027;28;20504;-82
2021/07/29 05:53:56;;;;;;;5.13;3.80;;;15.90;99.90;;;16.60;100.00;97901.13;5026730;28;20513;-82
2021/07/29 05:56:44;;;;;;;5.80;3.20;;;15.90;99.90;;;16.55;100.00;97904.47;5030104;28;20871;-82
2021/07/29 05:59:12;;;;;;;10.80;3.60;;;15.80;99.90;;;16.57;100.00;97910.31;5030794;28;20454;-82
2021/07/29 06:01:42;;;;;;;5.63;3.73;;;15.80;99.90;;;16.60;100.00;97909.88;5033982;28;20861;-82
2021/07/29 06:04:15;;;;;;;4.90;3.10;;;16.00;99.90;;;16.59;100.00;97905.59;5029009;28;20453;-82
2021/07/29 06:06:46;;;;;;;4.70;2.83;;;16.00;99.90;;;16.58;100.00;97919.06;5028270;28;20480;-82
2021/07/29 06:09:14;;;;;;;5.13;3.67;;;15.90;99.90;;;16.50;100.00;97920.16;5030649;28;20466;-82
2021/07/29 06:11:43;;;;;;;4.40;3.30;;;15.80;99.90;;;16.54;100.00;97918.66;5028059;28;20874;-82
2021/07/29 06:14:12;;;;;;;12.27;3.50;;;15.80;99.90;;;16.53;100.00;97910.97;5034190;28;20453;-82
2021/07/29 06:16:42;;;;;;;5.23;3.33;;;15.80;99.90;;;16.59;100.00;97908.25;5030493;28;20450;-82
2021/07/29 06:19:28;;;;;;;13.50;3.37;;;15.80;99.90;;;16.54;100.00;97913.38;5034911;28;20461;-82
2021/07/29 06:22:00;;;;;;;12.27;3.57;;;15.70;99.90;;;16.63;100.00;97918.34;5029468;28;20532;-82
2021/07/29 06:24:46;;;;;;;5.63;2.40;;;15.90;99.90;;;16.64;100.00;97922.59;5033130;28;20958;-82
2021/07/29 06:27:21;;;;;;;6.13;3.20;;;15.90;99.90;;;16.59;100.00;97915.38;5029299;28;20922;-82
2021/07/29 06:29:50;;;;;;;6.67;3.50;;;15.80;99.90;;;16.66;100.00;97926.63;5032477;28;20453;-82
2021/07/29 06:32:20;;;;;;;7.83;2.90;;;15.90;99.90;;;16.68;100.00;97919.28;5029564;28;20486;-82
2021/07/29 06:34:48;;;;;;;8.80;3.27;;;15.90;99.90;;;16.67;100.00;97917.66;5028229;28;20453;-82
2021/07/29 06:37:17;;;;;;;4.50;2.90;;;15.80;99.90;;;16.66;100.00;97923.19;5037506;28;20845;-83
2021/07/29 06:39:45;;;;;;;4.13;2.87;;;15.80;99.90;;;16.73;100.00;97922.03;5033855;28;20461;-82
2021/07/29 06:42:21;;;;;;;6.20;3.03;;;16.00;99.90;;;16.84;100.00;97923.06;5037196;28;20476;-82
2021/07/29 06:44:56;;;;;;;4.70;2.50;;;16.10;99.90;;;16.89;100.00;97926.66;5028656;28;20446;-82
2021/07/29 06:47:27;;;;;;;7.73;3.37;;;16.10;99.90;;;16.96;100.00;97921.25;5032656;28;20489;-82
2021/07/29 06:49:56;;;;;;;7.50;3.07;;;16.10;99.90;;;17.08;100.00;97919.38;5036230;28;20461;-82
2021/07/29 06:52:25;;;;;;;5.20;2.60;;;16.30;99.90;;;17.17;100.00;97933.88;5034067;28;20574;-82
2021/07/29 06:55:04;;;;;;;6.60;3.10;;;16.50;99.90;;;17.20;100.00;97933.41;5032195;28;20481;-82
2021/07/29 06:57:38;;;;;;;4.57;3.37;;;16.40;99.90;;;17.28;100.00;97934.88;5037344;28;20446;-82
2021/07/29 07:00:09;;;;;;;6.40;2.77;;;16.50;99.90;;;17.34;100.00;97940.03;5031343;28;20945;-82
2021/07/29 07:02:39;;;;;;;3.60;2.50;;;16.50;99.90;;;17.43;100.00;97943.94;5029785;28;20507;-82
2021/07/29 07:05:09;;;;;;;4.80;2.53;;;16.70;99.90;;;17.47;100.00;97944.25;5023721;28;20955;-82
2021/07/29 07:07:37;;;;;;;4.87;2.50;;;16.80;99.90;;;17.36;100.00;97943.25;5030032;28;20882;-82
2021/07/29 07:10:07;;;;;;;3.60;2.67;;;16.60;99.90;;;17.39;100.00;97947.28;5036404;28;20530;-82
2021/07/29 07:12:47;;;;;;;6.10;2.73;;;16.70;99.90;;;17.41;100.00;97945.22;5040532;28;20712;-82
2021/07/29 07:15:32;;;;;;;10.17;2.90;;;16.60;99.90;;;17.44;100.00;97950.84;5032415;28;20978;-83
2021/07/29 07:18:02;;;;;;;5.87;2.70;;;16.80;99.90;;;17.47;100.00;97944.25;5042228;28;20523;-82
2021/07/29 07:20:31;;;;;;;4.30;2.70;;;16.80;99.90;;;17.44;100.00;97956.13;5028824;28;20458;-82
2021/07/29 07:23:00;;;;;;;5.23;2.30;;;16.70;99.90;;;17.45;100.00;97956.94;5029957;28;20860;-82
2021/07/29 07:25:36;;;;;;;10.17;2.37;;;16.70;99.90;;;17.49;100.00;97953.56;5032120;28;20820;-82
2021/07/29 07:28:09;;;;;;;4.67;2.90;;;16.60;99.90;;;17.42;100.00;97958.19;5031812;28;20495;-82
2021/07/29 07:30:45;;;;;;;3.93;2.37;;;16.50;99.90;;;17.40;100.00;97959.44;5037749;28;20458;-82
2021/07/29 07:33:16;;;;;;;4.00;2.53;;;16.60;99.90;;;17.41;100.00;97958.44;5031310;28;20523;-82
2021/07/29 07:35:44;;;;;;;2.80;2.27;;;16.60;99.90;;;17.36;100.00;97959.13;5031261;28;20474;-82
2021/07/29 07:38:12;;;;;;;9.17;3.17;;;16.50;99.90;;;17.36;100.00;97971.53;5032264;28;20454;-82
2021/07/29 07:40:41;;;;;;;3.60;2.57;;;16.50;99.90;;;17.49;100.00;97961.50;5041394;28;20464;-82
2021/07/29 07:43:10;;;;;;;5.10;2.90;;;16.70;99.90;;;17.62;100.00;97978.19;5034750;28;20450;-82
2021/07/29 07:45:38;;;;;;;3.70;2.43;;;16.80;99.90;;;17.59;100.00;97969.69;5038875;28;20453;-82
2021/07/29 07:48:09;;;;;;;4.63;2.40;;;16.80;99.90;;;17.65;100.00;97967.13;5034967;28;20493;-82
2021/07/29 07:50:40;;;;;;;7.27;2.43;;;16.80;99.90;;;17.70;100.00;97967.25;5038226;28;20450;-82
2021/07/29 07:53:08;;;;;;;3.93;2.17;;;16.90;99.90;;;17.77;100.00;97965.28;5039369;28;20497;-82
2021/07/29 07:55:37;;;;;;;6.47;2.47;;;17.10;99.90;;;17.79;100.00;97964.00;5036924;28;20524;-82
2021/07/29 07:58:05;;;;;;;4.37;2.60;;;17.00;99.90;;;17.84;100.00;97966.72;5033045;28;20441;-82
2021/07/29 08:00:33;;;;;;;14.57;3.13;;;17.10;99.90;;;17.88;100.00;97967.06;5032120;28;20450;-82
2021/07/29 08:03:02;;;;;;;2.50;1.87;;;17.10;99.90;;;17.94;100.00;97961.66;5041617;28;20508;-82
2021/07/29 08:05:31;;;;;;;5.67;2.63;;;17.20;99.90;;;18.05;100.00;97967.91;5031012;28;20457;-82
2021/07/29 08:08:01;;;;;;;7.63;2.57;;;17.40;99.90;;;18.14;100.00;97961.22;5042786;28;20474;-82
2021/07/29 08:10:30;;;;;;;5.10;2.40;;;17.50;99.90;;;18.09;100.00;97963.75;5032891;28;20450;-82
2021/07/29 08:12:58;;;;;;;4.57;2.57;;;17.40;99.90;;;18.15;100.00;97962.84;5034708;28;20508;-82
2021/07/29 08:15:27;;;;;;;5.13;2.83;;;17.40;99.90;;;18.21;100.00;97975.13;5033230;28;20446;-82
2021/07/29 08:17:56;;;;;;;3.90;2.67;;;17.40;99.90;;;18.18;100.00;97959.72;5031979;28;20461;-82
2021/07/29 08:20:25;;;;;;;3.27;2.20;;;17.40;99.90;;;18.24;100.00;97977.28;5031874;28;20512;-82
2021/07/29 08:22:54;;;;;;;5.10;2.30;;;17.50;99.90;;;18.24;100.00;97963.25;5032448;28;20450;-82
2021/07/29 08:25:25;;;;;;;6.20;2.70;;;17.50;99.90;;;18.23;100.00;97970.38;5032503;28;20438;-82
2021/07/29 08:27:54;;;;;;;3.50;2.20;;;17.50;99.90;;;18.25;100.00;97968.31;5027551;28;20458;-82
2021/07/29 08:30:23;;;;;;;6.33;2.30;;;17.40;99.90;;;18.32;100.00;97968.97;5032496;28;20446;-82
2021/07/29 08:32:51;;;;;;;3.97;1.90;;;17.50;99.90;;;18.31;100.00;97971.84;5031333;28;20485;-82
2021/07/29 08:35:20;;;;;;;4.90;2.60;;;17.50;99.90;;;18.30;100.00;97964.94;5031483;28;20516;-82
2021/07/29 08:37:50;;;;;;;4.50;2.60;;;17.50;99.90;;;18.31;100.00;97971.84;5030044;28;20458;-82
2021/07/29 08:40:20;;;;;;;2.40;2.00;;;17.50;99.90;;;18.28;100.00;97959.91;5030161;28;20938;-82
2021/07/29 08:42:50;;;;;;;3.10;2.10;;;17.50;99.90;;;18.41;100.00;97962.22;5031423;28;20500;-82
2021/07/29 08:45:19;;;;;;;5.37;2.50;;;17.60;99.90;;;18.41;100.00;97964.88;5033913;28;20444;-82
2021/07/29 08:47:54;;;;;;;4.77;2.40;;;17.60;99.90;;;18.49;100.00;97967.16;5031508;28;20508;-82
2021/07/29 08:50:23;;;;;;;5.17;2.57;;;17.80;99.90;;;18.50;100.00;97971.41;5030124;28;20465;-81
2021/07/29 08:52:53;;;;;;;5.00;2.00;;;17.80;99.90;;;18.60;100.00;97978.75;5032467;28;20490;-82
2021/07/29 08:55:24;;;;;;;6.73;2.40;;;17.90;99.90;;;18.53;100.00;97978.09;5030308;28;20456;-82
2021/07/29 08:57:55;;;;;;;5.70;2.33;;;17.80;99.90;;;18.54;100.00;97969.09;5033756;28;21016;-82
2021/07/29 09:00:24;;;;;;;5.67;2.63;;;17.80;99.90;;;18.55;100.00;97971.50;5029944;28;20457;-82
2021/07/29 09:02:54;;;;;;;3.67;2.50;;;17.80;99.90;;;18.50;100.00;97967.97;5024957;28;20801;-82
2021/07/29 09:05:24;;;;;;;3.20;2.17;;;17.70;99.90;;;18.53;100.00;97976.22;5028973;28;20465;-82
2021/07/29 09:08:07;;;;;;;9.47;2.47;;;17.80;99.90;;;18.56;100.00;97967.84;5037475;28;20490;-82
2021/07/29 09:10:42;;;;;;;6.30;2.53;;;17.70;99.90;;;18.52;100.00;97969.34;5033111;28;20476;-82
2021/07/29 09:13:16;;;;;;;4.67;2.33;;;17.70;99.90;;;18.68;100.00;97977.53;5026296;28;20503;-82
2021/07/29 09:15:48;;;;;;;2.67;2.20;;;17.80;99.90;;;18.72;100.00;97973.34;5031498;28;20452;-82
2021/07/29 09:18:18;;;;;;;3.87;2.50;;;18.00;99.90;;;18.74;100.00;97976.59;5030205;28;20462;-82
2021/07/29 09:20:49;;;;;;;4.90;2.70;;;18.00;99.90;;;18.84;100.00;97979.41;5040199;28;20865;-82
2021/07/29 09:23:21;;;;;;;5.60;2.10;;;18.10;99.90;;;18.88;100.00;97983.19;5029488;28;20564;-82
2021/07/29 09:26:01;;;;;;;5.83;2.47;;;18.10;99.90;;;18.95;100.00;97981.16;5040802;28;20972;-82
2021/07/29 09:28:38;;;;;;;5.93;1.90;;;18.30;99.90;;;19.03;100.00;97983.38;5031980;28;20535;-82
2021/07/29 09:31:19;;;;;;;6.50;2.70;;;18.40;99.90;;;18.94;98.93;97982.19;5031464;28;20462;-82
2021/07/29 09:34:00;;;;;;;4.80;2.30;;;18.20;99.90;;;19.02;99.74;97979.16;5034321;28;20874;-82
2021/07/29 09:36:32;;;;;;;2.70;2.23;;;18.30;99.90;;;19.09;100.00;97979.75;5029603;28;21223;-82
2021/07/29 09:39:20;;;;;;;4.13;2.30;;;18.40;99.90;;;19.11;96.64;97972.38;5027985;28;20450;-82
2021/07/29 09:41:54;;;;;;;4.43;2.77;;;18.40;99.90;;;19.19;95.46;97969.34;5031662;28;20977;-82
2021/07/29 09:44:53;;;;;;;4.40;2.50;;;18.40;99.90;;;19.32;94.62;97974.28;5029484;28;20454;-82
2021/07/29 09:47:23;;;;;;;6.47;2.93;;;18.70;99.90;;;19.28;89.01;97973.16;5031743;28;20547;-82
2021/07/29 09:49:54;;;;;;;6.17;2.23;;;18.50;99.90;;;19.35;89.90;97968.47;5032736;28;20454;-82
2021/07/29 09:52:26;;;;;;;4.67;1.90;;;18.70;99.90;;;19.38;88.15;97973.28;5034882;28;20516;-82
2021/07/29 09:55:00;;;;;;;3.57;2.00;;;18.80;99.90;;;19.42;87.87;97971.00;5032827;28;20501;-82
2021/07/29 09:57:30;;;;;;;7.80;2.20;;;18.80;99.90;;;19.36;87.33;97972.75;5029683;28;20454;-82
2021/07/29 10:00:02;;;;;;;3.50;2.53;;;18.60;99.90;;;19.39;88.52;97985.53;5031981;28;20458;-82
2021/07/29 10:02:32;;;;;;;3.50;1.90;;;18.70;99.90;;;19.30;88.44;97979.00;5029718;28;20438;-82
2021/07/29 10:05:03;;;;;;;2.40;1.93;;;18.60;99.90;;;19.30;91.76;97976.34;5028341;28;20549;-82
2021/07/29 10:07:40;;;;;;;8.10;2.00;;;18.70;99.90;;;19.28;89.03;97986.41;5032080;28;20528;-82
2021/07/29 10:10:12;;;;;;;4.10;2.57;;;18.50;99.90;;;19.30;89.35;97983.53;5029779;28;20488;-82
2021/07/29 10:12:48;;;;;;;8.50;2.43;;;18.50;99.90;;;19.36;90.35;97980.72;5024674;28;20466;-82
2021/07/29 10:15:41;;;;;;;7.23;2.90;;;18.60;99.90;;;19.37;90.00;97976.97;5026118;28;20508;-82
2021/07/29 10:18:13;;;;;;;4.80;2.30;;;18.70;99.90;;;19.44;90.44;97975.00;5032514;28;20474;-82
2021/07/29 10:20:43;;;;;;;2.60;2.07;;;18.70;99.90;;;19.48;89.57;97967.34;5040261;28;20453;-82
2021/07/29 10:23:33;;;;;;;4.37;2.30;;;18.70;99.90;;;19.39;84.23;97980.22;5034414;28;20864;-82
2021/07/29 10:26:08;;;;;;;6.33;2.50;;;18.70;99.90;;;19.43;84.96;97984.00;5025440;28;20814;-82
2021/07/29 10:28:39;;;;;;;3.20;2.33;;;18.70;99.90;;;19.30;85.53;97986.97;5029067;28;20493;-82
2021/07/29 10:31:18;;;;;;;3.43;2.20;;;18.50;99.90;;;19.42;86.77;97995.66;5034333;28;20500;-82